createdAt,value
2023-03-20T00:00:40.246Z,993.89
2023-03-20T00:01:40.253Z,993.98
2023-03-20T00:02:40.186Z,993.98
2023-03-20T00:03:40.193Z,994.00
2023-03-20T00:04:40.118Z,993.98
2023-03-20T00:05:40.058Z,993.98
2023-03-20T00:06:40.165Z,994.02
2023-03-20T00:07:40.037Z,994.02
2023-03-20T00:08:40.054Z,994.00
2023-03-20T00:09:40.034Z,994.01
2023-03-20T00:10:40.027Z,994.00
2023-03-20T00:11:40.026Z,994.06
2023-03-20T00:12:40.009Z,994.06
2023-03-20T00:13:40.070Z,994.04
2023-03-20T00:14:40.002Z,994.06
2023-03-20T00:15:40.043Z,994.05
2023-03-20T00:16:39.989Z,994.03
2023-03-20T00:17:39.970Z,994.02
2023-03-20T00:18:39.976Z,994.02
2023-03-20T00:19:39.964Z,994.04
2023-03-20T00:20:39.950Z,994.03
2023-03-20T00:21:39.949Z,994.03
2023-03-20T00:22:39.936Z,994.08
2023-03-20T00:23:39.961Z,994.05
2023-03-20T00:24:39.923Z,994.04
2023-03-20T00:25:39.928Z,994.04
2023-03-20T00:26:39.931Z,994.07
2023-03-20T00:27:39.913Z,994.08
2023-03-20T00:28:39.913Z,994.04
2023-03-20T00:29:39.896Z,994.04
2023-03-20T00:30:39.889Z,994.00
2023-03-20T00:31:39.977Z,994.03
2023-03-20T00:32:39.950Z,994.00
2023-03-20T00:33:39.883Z,994.03
2023-03-20T00:34:39.874Z,994.07
2023-03-20T00:35:39.882Z,994.07
2023-03-20T00:36:39.852Z,994.10
2023-03-20T00:37:39.861Z,994.05
2023-03-20T00:38:39.844Z,994.11
2023-03-20T00:39:39.819Z,994.16
2023-03-20T00:40:39.822Z,994.05
2023-03-20T00:41:39.805Z,994.08
2023-03-20T00:42:39.819Z,994.14
2023-03-20T00:43:39.820Z,994.12
2023-03-20T00:44:42.078Z,994.06
2023-03-20T00:45:40.803Z,994.12
2023-03-20T00:46:39.829Z,994.09
2023-03-20T00:47:39.794Z,994.11
2023-03-20T00:48:39.819Z,994.11
2023-03-20T00:49:39.761Z,994.13
2023-03-20T00:50:39.742Z,994.07
2023-03-20T00:51:39.754Z,994.10
2023-03-20T00:52:39.751Z,994.05
2023-03-20T00:53:39.741Z,994.07
2023-03-20T00:54:39.735Z,994.09
2023-03-20T00:55:39.710Z,994.09
2023-03-20T00:56:39.703Z,994.04
2023-03-20T00:57:39.707Z,994.07
2023-03-20T00:58:39.722Z,994.05
2023-03-20T00:59:39.689Z,994.07
2023-03-20T01:00:39.731Z,994.00
2023-03-20T01:01:39.710Z,994.10
2023-03-20T01:02:39.665Z,994.05
2023-03-20T01:03:40.830Z,994.09
2023-03-20T01:04:40.655Z,994.07
2023-03-20T01:05:39.639Z,994.07
2023-03-20T01:06:39.635Z,994.08
2023-03-20T01:07:39.632Z,994.08
2023-03-20T01:08:39.640Z,994.06
2023-03-20T01:09:39.618Z,994.06
2023-03-20T01:10:39.601Z,994.10
2023-03-20T01:11:39.603Z,994.12
2023-03-20T01:12:39.590Z,994.09
2023-03-20T01:13:39.605Z,994.09
2023-03-20T01:14:39.572Z,994.07
2023-03-20T01:15:39.571Z,994.09
2023-03-20T01:16:39.593Z,994.04
2023-03-20T01:17:39.559Z,994.10
2023-03-20T01:18:39.905Z,994.10
2023-03-20T01:19:39.560Z,994.08
2023-03-20T01:20:39.532Z,994.06
2023-03-20T01:21:39.537Z,994.02
2023-03-20T01:22:39.520Z,994.05
2023-03-20T01:23:39.534Z,994.03
2023-03-20T01:24:40.730Z,994.00
2023-03-20T01:25:40.493Z,994.05
2023-03-20T01:26:39.564Z,994.05
2023-03-20T01:27:39.500Z,994.03
2023-03-20T01:28:39.496Z,994.07
2023-03-20T01:29:39.470Z,994.07
2023-03-20T01:30:39.492Z,994.05
2023-03-20T01:31:39.513Z,994.07
2023-03-20T01:32:39.480Z,994.06
2023-03-20T01:33:39.464Z,994.10
2023-03-20T01:34:39.442Z,994.10
2023-03-20T01:35:39.450Z,994.11
2023-03-20T01:36:39.415Z,994.14
2023-03-20T01:37:39.434Z,994.09
2023-03-20T01:38:39.432Z,994.14
2023-03-20T01:39:39.403Z,994.15
2023-03-20T01:40:39.394Z,994.16
2023-03-20T01:41:39.398Z,994.10
2023-03-20T01:42:39.381Z,994.10
2023-03-20T01:43:39.415Z,994.14
2023-03-20T01:44:39.370Z,994.10
2023-03-20T01:45:39.566Z,994.08
2023-03-20T01:46:39.367Z,994.04
2023-03-20T01:47:39.363Z,994.04
2023-03-20T01:48:39.378Z,994.02
2023-03-20T01:49:39.367Z,994.04
2023-03-20T01:50:39.330Z,994.05
2023-03-20T01:51:39.339Z,994.03
2023-03-20T01:52:39.317Z,994.06
2023-03-20T01:53:39.310Z,994.05
2023-03-20T01:54:39.343Z,994.05
2023-03-20T01:55:39.385Z,994.06
2023-03-20T01:56:39.302Z,994.07
2023-03-20T01:57:39.304Z,994.08
2023-03-20T01:58:39.363Z,994.09
2023-03-20T01:59:39.310Z,994.09
2023-03-20T02:00:39.275Z,994.09
2023-03-20T02:01:39.276Z,994.09
2023-03-20T02:02:39.279Z,994.17
2023-03-20T02:03:39.268Z,994.13
2023-03-20T02:04:39.267Z,994.14
2023-03-20T02:05:39.246Z,994.12
2023-03-20T02:06:39.253Z,994.14
2023-03-20T02:07:39.261Z,994.10
2023-03-20T02:08:39.212Z,994.19
2023-03-20T02:09:39.231Z,994.13
2023-03-20T02:10:39.208Z,994.16
2023-03-20T02:11:39.192Z,994.18
2023-03-20T02:12:39.210Z,994.24
2023-03-20T02:13:39.168Z,994.21
2023-03-20T02:14:39.336Z,994.23
2023-03-20T02:15:39.162Z,994.23
2023-03-20T02:16:39.234Z,994.28
2023-03-20T02:17:39.137Z,994.25
2023-03-20T02:18:39.164Z,994.33
2023-03-20T02:19:39.155Z,994.26
2023-03-20T02:20:39.131Z,994.28
2023-03-20T02:21:39.152Z,994.30
2023-03-20T02:22:39.226Z,994.28
2023-03-20T02:23:39.171Z,994.27
2023-03-20T02:24:39.180Z,994.15
2023-03-20T02:25:39.142Z,994.16
2023-03-20T02:26:39.151Z,994.13
2023-03-20T02:27:39.173Z,994.10
2023-03-20T02:28:39.108Z,994.06
2023-03-20T02:29:39.097Z,994.12
2023-03-20T02:30:39.205Z,994.16
2023-03-20T02:31:39.134Z,994.18
2023-03-20T02:32:39.167Z,994.20
2023-03-20T02:33:39.196Z,994.19
2023-03-20T02:34:39.131Z,994.22
2023-03-20T02:35:39.231Z,994.26
2023-03-20T02:36:39.115Z,994.19
2023-03-20T02:37:39.064Z,994.23
2023-03-20T02:38:39.061Z,994.15
2023-03-20T02:39:39.062Z,994.16
2023-03-20T02:40:39.039Z,994.21
2023-03-20T02:41:39.156Z,994.20
2023-03-20T02:42:39.084Z,994.15
2023-03-20T02:43:39.141Z,994.21
2023-03-20T02:44:39.073Z,994.22
2023-03-20T02:45:38.950Z,994.18
2023-03-20T02:46:39.006Z,994.18
2023-03-20T02:47:39.108Z,994.21
2023-03-20T02:48:38.932Z,994.21
2023-03-20T02:49:39.015Z,994.23
2023-03-20T02:50:38.928Z,994.25
2023-03-20T02:51:38.914Z,994.22
2023-03-20T02:52:38.901Z,994.25
2023-03-20T02:53:38.908Z,994.26
2023-03-20T02:54:38.923Z,994.28
2023-03-20T02:55:38.910Z,994.25
2023-03-20T02:56:38.880Z,994.31
2023-03-20T02:57:38.877Z,994.24
2023-03-20T02:58:38.896Z,994.28
2023-03-20T02:59:38.892Z,994.32
2023-03-20T03:00:38.856Z,994.32
2023-03-20T03:01:38.908Z,994.35
2023-03-20T03:02:38.938Z,994.40
2023-03-20T03:03:38.855Z,994.39
2023-03-20T03:04:38.848Z,994.42
2023-03-20T03:05:38.830Z,994.39
2023-03-20T03:06:38.816Z,994.40
2023-03-20T03:07:38.795Z,994.47
2023-03-20T03:08:38.798Z,994.49
2023-03-20T03:09:38.811Z,994.48
2023-03-20T03:10:38.772Z,994.45
2023-03-20T03:11:39.791Z,994.48
2023-03-20T03:12:38.802Z,994.48
2023-03-20T03:13:38.776Z,994.52
2023-03-20T03:14:38.774Z,994.51
2023-03-20T03:15:38.876Z,994.51
2023-03-20T03:16:38.746Z,994.48
2023-03-20T03:17:38.755Z,994.55
2023-03-20T03:18:38.729Z,994.50
2023-03-20T03:19:38.737Z,994.55
2023-03-20T03:20:38.708Z,994.48
2023-03-20T03:21:38.711Z,994.54
2023-03-20T03:22:38.698Z,994.46
2023-03-20T03:23:38.706Z,994.47
2023-03-20T03:24:41.539Z,994.50
2023-03-20T03:25:39.689Z,994.50
2023-03-20T03:26:38.685Z,994.44
2023-03-20T03:27:38.675Z,994.45
2023-03-20T03:28:38.665Z,994.47
2023-03-20T03:29:38.667Z,994.43
2023-03-20T03:30:38.642Z,994.46
2023-03-20T03:31:38.725Z,994.45
2023-03-20T03:32:38.660Z,994.45
2023-03-20T03:33:38.636Z,994.43
2023-03-20T03:34:38.636Z,994.46
2023-03-20T03:35:39.114Z,994.48
2023-03-20T03:36:38.612Z,994.48
2023-03-20T03:37:38.597Z,994.47
2023-03-20T03:38:38.588Z,994.43
2023-03-20T03:39:38.599Z,994.43
2023-03-20T03:40:38.571Z,994.45
2023-03-20T03:41:38.563Z,994.42
2023-03-20T03:42:38.567Z,994.44
2023-03-20T03:43:38.556Z,994.50
2023-03-20T03:44:38.568Z,994.44
2023-03-20T03:45:38.626Z,994.48
2023-03-20T03:46:38.582Z,994.46
2023-03-20T03:47:38.530Z,994.50
2023-03-20T03:48:38.529Z,994.50
2023-03-20T03:49:38.544Z,994.50
2023-03-20T03:50:38.522Z,994.53
2023-03-20T03:51:38.500Z,994.50
2023-03-20T03:52:38.513Z,994.53
2023-03-20T03:53:38.504Z,994.56
2023-03-20T03:54:38.542Z,994.54
2023-03-20T03:55:38.989Z,994.59
2023-03-20T03:56:38.521Z,994.61
2023-03-20T03:57:38.466Z,994.59
2023-03-20T03:58:38.453Z,994.60
2023-03-20T03:59:38.471Z,994.60
2023-03-20T04:00:38.448Z,994.69
2023-03-20T04:01:38.459Z,994.62
2023-03-20T04:02:38.437Z,994.66
2023-03-20T04:03:38.492Z,994.65
2023-03-20T04:04:38.467Z,994.67
2023-03-20T04:05:38.544Z,994.63
2023-03-20T04:06:38.408Z,994.66
2023-03-20T04:07:38.394Z,994.69
2023-03-20T04:08:38.402Z,994.65
2023-03-20T04:09:38.415Z,994.72
2023-03-20T04:10:38.380Z,994.71
2023-03-20T04:11:38.368Z,994.73
2023-03-20T04:12:38.372Z,994.75
2023-03-20T04:13:38.363Z,994.76
2023-03-20T04:14:38.370Z,994.78
2023-03-20T04:15:38.400Z,994.73
2023-03-20T04:16:38.378Z,994.80
2023-03-20T04:17:39.328Z,994.70
2023-03-20T04:18:38.340Z,994.71
2023-03-20T04:19:38.345Z,994.77
2023-03-20T04:20:39.444Z,994.82
2023-03-20T04:21:38.309Z,994.77
2023-03-20T04:22:38.306Z,994.76
2023-03-20T04:23:38.293Z,994.74
2023-03-20T04:24:38.290Z,994.75
2023-03-20T04:25:38.482Z,994.79
2023-03-20T04:26:38.278Z,994.83
2023-03-20T04:27:38.270Z,994.88
2023-03-20T04:28:38.265Z,994.88
2023-03-20T04:29:39.368Z,994.88
2023-03-20T04:30:39.261Z,994.87
2023-03-20T04:31:38.274Z,994.84
2023-03-20T04:32:38.301Z,994.88
2023-03-20T04:33:38.253Z,994.89
2023-03-20T04:34:38.241Z,994.95
2023-03-20T04:35:38.524Z,994.99
2023-03-20T04:36:38.216Z,994.93
2023-03-20T04:37:38.201Z,994.98
2023-03-20T04:38:38.200Z,995.00
2023-03-20T04:39:38.208Z,995.01
2023-03-20T04:40:38.189Z,995.01
2023-03-20T04:41:38.197Z,994.97
2023-03-20T04:42:38.176Z,994.97
2023-03-20T04:43:38.172Z,994.96
2023-03-20T04:44:38.183Z,994.97
2023-03-20T04:45:38.477Z,994.96
2023-03-20T04:46:38.154Z,994.97
2023-03-20T04:47:38.150Z,995.01
2023-03-20T04:48:38.150Z,994.97
2023-03-20T04:49:38.195Z,994.96
2023-03-20T04:50:38.123Z,994.94
2023-03-20T04:51:38.108Z,994.93
2023-03-20T04:52:38.124Z,994.89
2023-03-20T04:53:38.117Z,994.88
2023-03-20T04:54:38.127Z,994.88
2023-03-20T04:55:38.167Z,994.85
2023-03-20T04:56:38.107Z,994.82
2023-03-20T04:57:38.103Z,994.88
2023-03-20T04:58:38.099Z,994.84
2023-03-20T04:59:38.060Z,994.89
2023-03-20T05:00:38.069Z,994.79
2023-03-20T05:01:38.108Z,994.77
2023-03-20T05:02:38.034Z,994.78
2023-03-20T05:03:38.035Z,994.75
2023-03-20T05:04:38.021Z,994.75
2023-03-20T05:05:38.107Z,994.74
2023-03-20T05:06:38.009Z,994.78
2023-03-20T05:07:37.999Z,994.74
2023-03-20T05:08:38.003Z,994.74
2023-03-20T05:09:37.999Z,994.74
2023-03-20T05:10:38.008Z,994.72
2023-03-20T05:11:38.017Z,994.69
2023-03-20T05:12:38.007Z,994.66
2023-03-20T05:13:37.979Z,994.63
2023-03-20T05:14:37.955Z,994.59
2023-03-20T05:15:37.995Z,994.63
2023-03-20T05:16:37.992Z,994.59
2023-03-20T05:17:38.034Z,994.61
2023-03-20T05:18:37.933Z,994.56
2023-03-20T05:19:37.929Z,994.60
2023-03-20T05:20:37.933Z,994.57
2023-03-20T05:21:37.906Z,994.55
2023-03-20T05:22:37.890Z,994.49
2023-03-20T05:23:37.891Z,994.50
2023-03-20T05:24:37.882Z,994.52
2023-03-20T05:25:38.033Z,994.53
2023-03-20T05:26:37.871Z,994.50
2023-03-20T05:27:37.866Z,994.45
2023-03-20T05:28:37.849Z,994.44
2023-03-20T05:29:37.847Z,994.46
2023-03-20T05:30:37.889Z,994.46
2023-03-20T05:31:37.834Z,994.47
2023-03-20T05:32:37.874Z,994.52
2023-03-20T05:33:38.350Z,994.52
2023-03-20T05:34:38.808Z,994.52
2023-03-20T05:35:38.288Z,994.51
2023-03-20T05:36:37.801Z,994.51
2023-03-20T05:37:37.793Z,994.51
2023-03-20T05:38:37.793Z,994.55
2023-03-20T05:39:37.799Z,994.59
2023-03-20T05:40:37.780Z,994.58
2023-03-20T05:41:37.766Z,994.60
2023-03-20T05:42:37.761Z,994.58
2023-03-20T05:43:37.770Z,994.61
2023-03-20T05:44:37.756Z,994.62
2023-03-20T05:45:37.924Z,994.63
2023-03-20T05:46:37.817Z,994.59
2023-03-20T05:47:37.967Z,994.65
2023-03-20T05:48:37.735Z,994.65
2023-03-20T05:49:37.740Z,994.66
2023-03-20T05:50:37.718Z,994.61
2023-03-20T05:51:37.739Z,994.68
2023-03-20T05:52:37.689Z,994.61
2023-03-20T05:53:37.689Z,994.63
2023-03-20T05:54:37.749Z,994.56
2023-03-20T05:55:38.000Z,994.51
2023-03-20T05:56:37.684Z,994.57
2023-03-20T05:57:37.662Z,994.61
2023-03-20T05:58:37.646Z,994.60
2023-03-20T05:59:37.628Z,994.56
2023-03-20T06:00:38.666Z,994.56
2023-03-20T06:01:37.633Z,994.58
2023-03-20T06:02:37.765Z,994.59
2023-03-20T06:03:37.661Z,994.59
2023-03-20T06:04:37.631Z,994.57
2023-03-20T06:05:38.094Z,994.57
2023-03-20T06:06:37.593Z,994.58
2023-03-20T06:07:37.574Z,994.65
2023-03-20T06:08:37.589Z,994.70
2023-03-20T06:09:37.590Z,994.67
2023-03-20T06:10:37.574Z,994.84
2023-03-20T06:11:37.882Z,994.79
2023-03-20T06:12:38.549Z,994.82
2023-03-20T06:13:37.541Z,994.82
2023-03-20T06:14:37.534Z,994.78
2023-03-20T06:15:37.967Z,994.75
2023-03-20T06:16:37.520Z,994.78
2023-03-20T06:17:37.550Z,994.73
2023-03-20T06:18:37.509Z,994.72
2023-03-20T06:19:37.508Z,994.70
2023-03-20T06:20:37.506Z,994.76
2023-03-20T06:21:37.485Z,994.71
2023-03-20T06:22:37.502Z,994.73
2023-03-20T06:23:37.469Z,994.70
2023-03-20T06:24:37.463Z,994.68
2023-03-20T06:25:38.059Z,994.76
2023-03-20T06:26:37.462Z,994.71
2023-03-20T06:27:37.473Z,994.72
2023-03-20T06:28:37.436Z,994.71
2023-03-20T06:29:37.437Z,994.77
2023-03-20T06:30:37.418Z,994.71
2023-03-20T06:31:37.501Z,994.69
2023-03-20T06:32:37.471Z,994.77
2023-03-20T06:33:37.404Z,994.80
2023-03-20T06:34:37.394Z,994.78
2023-03-20T06:35:37.843Z,994.79
2023-03-20T06:36:37.381Z,994.76
2023-03-20T06:37:37.380Z,994.83
2023-03-20T06:38:37.393Z,994.79
2023-03-20T06:39:37.392Z,994.82
2023-03-20T06:40:37.384Z,994.83
2023-03-20T06:41:37.364Z,994.88
2023-03-20T06:42:37.336Z,994.85
2023-03-20T06:43:37.338Z,994.90
2023-03-20T06:44:37.349Z,994.83
2023-03-20T06:45:37.755Z,994.80
2023-03-20T06:46:37.382Z,994.83
2023-03-20T06:47:37.311Z,994.83
2023-03-20T06:48:37.302Z,994.87
2023-03-20T06:49:37.295Z,994.87
2023-03-20T06:50:37.304Z,994.90
2023-03-20T06:51:37.287Z,994.91
2023-03-20T06:52:37.266Z,994.86
2023-03-20T06:53:37.264Z,994.88
2023-03-20T06:54:37.258Z,994.93
2023-03-20T06:55:37.525Z,994.96
2023-03-20T06:56:37.246Z,994.93
2023-03-20T06:57:37.272Z,994.96
2023-03-20T06:58:37.223Z,994.95
2023-03-20T06:59:37.229Z,994.99
2023-03-20T07:00:37.224Z,994.94
2023-03-20T07:01:37.203Z,995.00
2023-03-20T07:02:37.247Z,995.03
2023-03-20T07:03:37.202Z,995.08
2023-03-20T07:04:37.288Z,995.09
2023-03-20T07:05:37.515Z,995.12
2023-03-20T07:06:37.192Z,995.11
2023-03-20T07:07:37.195Z,995.11
2023-03-20T07:08:37.203Z,995.09
2023-03-20T07:09:37.164Z,995.10
2023-03-20T07:10:37.544Z,995.13
2023-03-20T07:11:37.152Z,995.11
2023-03-20T07:12:37.141Z,995.10
2023-03-20T07:13:37.166Z,995.16
2023-03-20T07:14:37.130Z,995.09
2023-03-20T07:15:37.391Z,995.18
2023-03-20T07:16:37.149Z,995.16
2023-03-20T07:17:38.116Z,995.11
2023-03-20T07:18:37.131Z,995.16
2023-03-20T07:19:38.248Z,995.15
2023-03-20T07:20:38.118Z,995.19
2023-03-20T07:21:37.095Z,995.19
2023-03-20T07:22:37.092Z,995.18
2023-03-20T07:23:37.091Z,995.16
2023-03-20T07:24:37.082Z,995.22
2023-03-20T07:25:42.821Z,995.20
2023-03-20T07:26:39.177Z,995.22
2023-03-20T07:27:37.045Z,995.19
2023-03-20T07:28:37.055Z,995.23
2023-03-20T07:29:37.037Z,995.27
2023-03-20T07:30:37.050Z,995.28
2023-03-20T07:31:37.070Z,995.25
2023-03-20T07:32:37.955Z,995.24
2023-03-20T07:33:38.022Z,995.22
2023-03-20T07:34:37.000Z,995.24
2023-03-20T07:35:37.348Z,995.14
2023-03-20T07:36:36.992Z,995.11
2023-03-20T07:37:36.973Z,995.08
2023-03-20T07:38:36.977Z,995.14
2023-03-20T07:39:36.975Z,995.09
2023-03-20T07:40:36.999Z,995.06
2023-03-20T07:41:37.943Z,995.06
2023-03-20T07:42:36.941Z,994.94
2023-03-20T07:43:36.951Z,994.97
2023-03-20T07:44:36.938Z,995.03
2023-03-20T07:45:37.199Z,995.05
2023-03-20T07:46:36.939Z,995.03
2023-03-20T07:47:36.966Z,995.03
2023-03-20T07:48:36.900Z,995.02
2023-03-20T07:49:36.891Z,995.00
2023-03-20T07:50:36.919Z,995.04
2023-03-20T07:51:36.896Z,995.04
2023-03-20T07:52:36.870Z,995.02
2023-03-20T07:53:36.864Z,995.00
2023-03-20T07:54:36.857Z,995.04
2023-03-20T07:55:37.110Z,995.07
2023-03-20T07:56:36.884Z,995.12
2023-03-20T07:57:36.913Z,995.14
2023-03-20T07:58:36.861Z,995.15
2023-03-20T07:59:36.835Z,995.20
2023-03-20T08:00:36.843Z,995.15
2023-03-20T08:01:36.859Z,995.17
2023-03-20T08:02:36.848Z,995.12
2023-03-20T08:03:37.973Z,995.16
2023-03-20T08:04:36.808Z,995.15
2023-03-20T08:05:37.135Z,995.16
2023-03-20T08:06:36.853Z,995.12
2023-03-20T08:07:36.796Z,995.15
2023-03-20T08:08:37.797Z,995.06
2023-03-20T08:09:36.841Z,995.18
2023-03-20T08:10:36.749Z,995.10
2023-03-20T08:11:37.783Z,995.10
2023-03-20T08:12:36.809Z,995.14
2023-03-20T08:13:36.760Z,995.21
2023-03-20T08:14:36.878Z,995.17
2023-03-20T08:15:36.930Z,995.18
2023-03-20T08:16:36.811Z,995.15
2023-03-20T08:17:36.711Z,995.19
2023-03-20T08:18:36.724Z,995.19
2023-03-20T08:19:37.248Z,995.23
2023-03-20T08:20:36.686Z,995.17
2023-03-20T08:21:36.688Z,995.12
2023-03-20T08:22:36.753Z,995.13
2023-03-20T08:23:36.678Z,995.14
2023-03-20T08:24:37.665Z,995.19
2023-03-20T08:25:36.856Z,995.24
2023-03-20T08:26:36.667Z,995.23
2023-03-20T08:27:36.631Z,995.22
2023-03-20T08:28:47.180Z,995.19
2023-03-20T08:29:38.640Z,995.15
2023-03-20T08:30:36.628Z,995.16
2023-03-20T08:31:36.638Z,995.18
2023-03-20T08:32:36.627Z,995.19
2023-03-20T08:33:36.633Z,995.18
2023-03-20T08:34:36.584Z,995.21
2023-03-20T08:35:36.643Z,995.24
2023-03-20T08:36:36.589Z,995.18
2023-03-20T08:37:36.654Z,995.27
2023-03-20T08:38:36.611Z,995.19
2023-03-20T08:39:36.647Z,995.21
2023-03-20T08:40:36.541Z,995.25
2023-03-20T08:41:36.527Z,995.20
2023-03-20T08:42:36.528Z,995.28
2023-03-20T08:43:36.584Z,995.23
2023-03-20T08:44:36.514Z,995.22
2023-03-20T08:45:36.756Z,995.20
2023-03-20T08:46:36.594Z,995.24
2023-03-20T08:47:36.822Z,995.21
2023-03-20T08:48:36.503Z,995.26
2023-03-20T08:49:36.479Z,995.30
2023-03-20T08:50:36.717Z,995.24
2023-03-20T08:51:36.609Z,995.24
2023-03-20T08:52:36.475Z,995.24
2023-03-20T08:53:37.322Z,995.28
2023-03-20T08:54:37.602Z,995.25
2023-03-20T08:55:36.840Z,995.19
2023-03-20T08:56:36.499Z,995.19
2023-03-20T08:57:36.486Z,995.23
2023-03-20T08:58:36.460Z,995.27
2023-03-20T08:59:36.556Z,995.19
2023-03-20T09:00:36.407Z,995.20
2023-03-20T09:01:48.650Z,995.24
2023-03-20T09:02:38.536Z,995.24
2023-03-20T09:03:36.388Z,995.18
2023-03-20T09:04:36.379Z,995.12
2023-03-20T09:05:36.773Z,995.17
2023-03-20T09:06:36.386Z,995.15
2023-03-20T09:07:36.359Z,995.20
2023-03-20T09:08:36.347Z,995.18
2023-03-20T09:09:36.343Z,995.18
2023-03-20T09:10:36.345Z,995.19
2023-03-20T09:11:36.334Z,995.24
2023-03-20T09:12:36.335Z,995.13
2023-03-20T09:13:36.317Z,995.20
2023-03-20T09:14:36.307Z,995.14
2023-03-20T09:15:36.613Z,995.16
2023-03-20T09:16:36.380Z,995.18
2023-03-20T09:17:36.286Z,995.23
2023-03-20T09:18:36.293Z,995.21
2023-03-20T09:19:36.270Z,995.20
2023-03-20T09:20:36.446Z,995.24
2023-03-20T09:21:36.296Z,995.24
2023-03-20T09:22:36.308Z,995.26
2023-03-20T09:23:36.288Z,995.25
2023-03-20T09:24:36.252Z,995.18
2023-03-20T09:25:36.610Z,995.28
2023-03-20T09:26:36.244Z,995.24
2023-03-20T09:27:36.216Z,995.28
2023-03-20T09:28:36.202Z,995.35
2023-03-20T09:29:36.194Z,995.41
2023-03-20T09:30:36.552Z,995.35
2023-03-20T09:31:36.282Z,995.31
2023-03-20T09:32:36.252Z,995.35
2023-03-20T09:33:36.186Z,995.35
2023-03-20T09:34:36.158Z,995.34
2023-03-20T09:35:36.181Z,995.34
2023-03-20T09:36:36.503Z,995.41
2023-03-20T09:37:36.146Z,995.41
2023-03-20T09:38:36.133Z,995.42
2023-03-20T09:39:36.127Z,995.44
2023-03-20T09:40:36.549Z,995.47
2023-03-20T09:41:48.906Z,995.52
2023-03-20T09:42:38.113Z,995.42
2023-03-20T09:43:36.118Z,995.50
2023-03-20T09:44:36.139Z,995.41
2023-03-20T09:45:36.081Z,995.49
2023-03-20T09:46:36.135Z,995.41
2023-03-20T09:47:36.081Z,995.43
2023-03-20T09:48:36.080Z,995.52
2023-03-20T09:49:37.063Z,995.45
2023-03-20T09:50:36.314Z,995.43
2023-03-20T09:51:36.102Z,995.50
2023-03-20T09:52:36.068Z,995.46
2023-03-20T09:53:36.082Z,995.50
2023-03-20T09:54:51.022Z,995.56
2023-03-20T09:55:38.461Z,995.50
2023-03-20T09:56:36.062Z,995.57
2023-03-20T09:57:36.045Z,995.57
2023-03-20T09:58:36.005Z,995.56
2023-03-20T09:59:36.015Z,995.61
2023-03-20T10:00:36.217Z,995.60
2023-03-20T10:01:39.496Z,995.55
2023-03-20T10:02:35.991Z,995.53
2023-03-20T10:03:35.984Z,995.55
2023-03-20T10:04:35.987Z,995.54
2023-03-20T10:05:36.140Z,995.53
2023-03-20T10:06:35.971Z,995.53
2023-03-20T10:07:35.951Z,995.54
2023-03-20T10:08:35.928Z,995.48
2023-03-20T10:09:35.912Z,995.55
2023-03-20T10:10:36.133Z,995.49
2023-03-20T10:11:35.939Z,995.51
2023-03-20T10:12:35.912Z,995.55
2023-03-20T10:13:35.889Z,995.55
2023-03-20T10:14:35.882Z,995.49
2023-03-20T10:15:35.885Z,995.47
2023-03-20T10:16:35.980Z,995.54
2023-03-20T10:17:35.867Z,995.51
2023-03-20T10:18:35.857Z,995.53
2023-03-20T10:19:35.857Z,995.50
2023-03-20T10:20:36.188Z,995.45
2023-03-20T10:21:35.893Z,995.48
2023-03-20T10:22:35.821Z,995.49
2023-03-20T10:23:35.837Z,995.46
2023-03-20T10:24:35.806Z,995.43
2023-03-20T10:25:35.815Z,995.47
2023-03-20T10:26:35.824Z,995.48
2023-03-20T10:27:35.794Z,995.42
2023-03-20T10:28:35.783Z,995.41
2023-03-20T10:29:35.773Z,995.48
2023-03-20T10:30:36.051Z,995.48
2023-03-20T10:31:35.792Z,995.42
2023-03-20T10:32:35.786Z,995.41
2023-03-20T10:33:35.765Z,995.44
2023-03-20T10:34:35.739Z,995.48
2023-03-20T10:35:35.764Z,995.42
2023-03-20T10:36:35.753Z,995.40
2023-03-20T10:37:35.726Z,995.34
2023-03-20T10:38:35.720Z,995.29
2023-03-20T10:39:35.725Z,995.26
2023-03-20T10:40:35.918Z,995.28
2023-03-20T10:41:35.730Z,995.29
2023-03-20T10:42:35.709Z,995.20
2023-03-20T10:43:38.797Z,995.31
2023-03-20T10:44:35.677Z,995.28
2023-03-20T10:45:35.664Z,995.31
2023-03-20T10:46:35.736Z,995.24
2023-03-20T10:47:35.714Z,995.28
2023-03-20T10:48:35.652Z,995.20
2023-03-20T10:49:35.643Z,995.30
2023-03-20T10:50:35.917Z,995.34
2023-03-20T10:51:35.687Z,995.21
2023-03-20T10:52:35.628Z,995.25
2023-03-20T10:53:35.632Z,995.24
2023-03-20T10:54:35.609Z,995.17
2023-03-20T10:55:35.593Z,995.19
2023-03-20T10:56:35.610Z,995.16
2023-03-20T10:57:35.587Z,995.18
2023-03-20T10:58:35.620Z,995.21
2023-03-20T10:59:35.598Z,995.15
2023-03-20T11:00:35.822Z,995.15
2023-03-20T11:01:36.075Z,995.12
2023-03-20T11:02:36.578Z,995.02
2023-03-20T11:03:35.551Z,995.16
2023-03-20T11:04:35.614Z,995.10
2023-03-20T11:05:35.548Z,995.10
2023-03-20T11:06:35.540Z,995.15
2023-03-20T11:07:35.566Z,995.18
2023-03-20T11:08:35.520Z,995.19
2023-03-20T11:09:35.517Z,995.11
2023-03-20T11:10:35.813Z,995.25
2023-03-20T11:11:35.498Z,995.19
2023-03-20T11:12:35.500Z,995.22
2023-03-20T11:13:35.477Z,995.15
2023-03-20T11:14:35.467Z,995.08
2023-03-20T11:15:35.470Z,995.10
2023-03-20T11:16:35.533Z,995.12
2023-03-20T11:17:35.481Z,995.17
2023-03-20T11:18:35.450Z,995.14
2023-03-20T11:19:35.448Z,995.14
2023-03-20T11:20:35.702Z,995.10
2023-03-20T11:21:35.437Z,995.12
2023-03-20T11:22:35.442Z,995.05
2023-03-20T11:23:35.443Z,995.19
2023-03-20T11:24:35.402Z,995.07
2023-03-20T11:25:35.395Z,995.09
2023-03-20T11:26:35.394Z,995.05
2023-03-20T11:27:36.409Z,995.07
2023-03-20T11:28:35.378Z,995.07
2023-03-20T11:29:35.390Z,994.97
2023-03-20T11:30:35.642Z,995.00
2023-03-20T11:31:35.418Z,995.03
2023-03-20T11:32:35.578Z,994.97
2023-03-20T11:33:35.324Z,995.06
2023-03-20T11:34:35.328Z,994.93
2023-03-20T11:35:35.394Z,995.07
2023-03-20T11:36:35.346Z,995.02
2023-03-20T11:37:35.406Z,994.94
2023-03-20T11:38:35.300Z,994.99
2023-03-20T11:39:35.287Z,995.03
2023-03-20T11:40:35.707Z,995.00
2023-03-20T11:41:35.274Z,994.93
2023-03-20T11:42:36.292Z,994.90
2023-03-20T11:43:35.273Z,994.95
2023-03-20T11:44:35.256Z,994.96
2023-03-20T11:45:35.282Z,994.98
2023-03-20T11:46:35.253Z,994.93
2023-03-20T11:47:35.277Z,994.94
2023-03-20T11:48:35.231Z,994.94
2023-03-20T11:49:35.220Z,994.96
2023-03-20T11:50:35.658Z,994.96
2023-03-20T11:51:35.227Z,994.95
2023-03-20T11:52:35.214Z,994.94
2023-03-20T11:53:35.190Z,994.90
2023-03-20T11:54:35.201Z,994.94
2023-03-20T11:55:35.174Z,994.97
2023-03-20T11:56:35.171Z,994.94
2023-03-20T11:57:35.260Z,994.92
2023-03-20T11:58:35.180Z,994.95
2023-03-20T11:59:35.154Z,994.94
2023-03-20T12:00:35.534Z,994.86
2023-03-20T12:01:35.141Z,994.89
2023-03-20T12:02:35.223Z,994.89
2023-03-20T12:03:35.165Z,994.89
2023-03-20T12:04:35.116Z,994.90
2023-03-20T12:05:35.119Z,994.92
2023-03-20T12:06:35.099Z,994.89
2023-03-20T12:07:35.125Z,994.81
2023-03-20T12:08:35.095Z,994.84
2023-03-20T12:09:35.087Z,994.91
2023-03-20T12:10:35.360Z,994.89
2023-03-20T12:11:35.077Z,994.93
2023-03-20T12:12:35.099Z,994.77
2023-03-20T12:13:35.043Z,994.82
2023-03-20T12:14:35.046Z,994.77
2023-03-20T12:15:35.084Z,994.77
2023-03-20T12:16:35.037Z,994.82
2023-03-20T12:17:35.082Z,994.81
2023-03-20T12:18:35.017Z,994.80
2023-03-20T12:19:35.008Z,994.77
2023-03-20T12:20:35.481Z,994.69
2023-03-20T12:21:35.007Z,994.74
2023-03-20T12:22:35.039Z,994.67
2023-03-20T12:23:34.987Z,994.68
2023-03-20T12:24:34.984Z,994.65
2023-03-20T12:25:34.976Z,994.65
2023-03-20T12:26:34.974Z,994.65
2023-03-20T12:27:34.974Z,994.64
2023-03-20T12:28:34.956Z,994.66